Time;durP1;ratioP1;P1;durP2;ratioP2;P2;SDS_P1;SDS_P2;PMS_P1;PMS_P2;Temp;Humidity;BMP_temperature;BMP_pressure;BME280_temperature;BME280_humidity;BME280_pressure;Samples;Min_cycle;Max_cycle;Signal;HPM_P1;HPM_P2
2022/11/02 00:00:12;;;;;;;9.35;2.10;;;;;;;;;;526124;27;1251;-62
2022/11/02 00:00:29;;;;;;;8.18;1.65;;;;;;;;;;526484;28;1198;-62
2022/11/02 00:00:44;;;;;;;10.63;2.15;;;;;;;;;;529606;27;1151;-62
2022/11/02 00:01:24;;;;;;;12.93;2.37;;;;;;;;;;524989;28;1305;-62
2022/11/02 00:01:42;;;;;;;11.07;2.10;;;;;;;;;;523433;28;1385;-62
2022/11/02 00:01:57;;;;;;;10.35;2.00;;;;;;;;;;522848;28;954;-62
2022/11/02 00:02:12;;;;;;;10.17;1.80;;;;;;;;;;525621;28;1184;-62
2022/11/02 00:02:27;;;;;;;12.17;1.80;;;;;;;;;;523688;28;1078;-62
2022/11/02 00:02:43;;;;;;;10.50;1.90;;;;;;;;;;523977;28;1202;-62
2022/11/02 00:02:58;;;;;;;10.43;1.92;;;;;;;;;;524914;28;1342;-62
2022/11/02 00:03:13;;;;;;;10.57;1.90;;;;;;;;;;526421;28;1208;-62
2022/11/02 00:03:29;;;;;;;10.40;1.73;;;;;;;;;;528099;27;970;-62
2022/11/02 00:03:44;;;;;;;11.73;1.73;;;;;;;;;;528288;27;1164;-62
2022/11/02 00:03:59;;;;;;;11.90;2.00;;;;;;;;;;530470;27;1171;-62
2022/11/02 00:04:14;;;;;;;10.07;2.13;;;;;;;;;;530471;27;1088;-62
2022/11/02 00:04:30;;;;;;;9.43;1.88;;;;;;;;;;526763;27;1360;-62
2022/11/02 00:04:45;;;;;;;10.23;1.90;;;;;;;;;;529003;27;1132;-61
2022/11/02 00:05:00;;;;;;;13.03;2.20;;;;;;;;;;527856;28;1222;-62
2022/11/02 00:05:22;;;;;;;12.50;2.40;;;;;;;;;;526356;27;1129;-62
2022/11/02 00:05:37;;;;;;;8.90;2.22;;;;;;;;;;526710;28;1180;-62
2022/11/02 00:05:53;;;;;;;9.65;1.98;;;;;;;;;;523610;28;1204;-62
2022/11/02 00:06:08;;;;;;;10.23;1.97;;;;;;;;;;524290;28;1204;-62
2022/11/02 00:06:23;;;;;;;10.43;2.10;;;;;;;;;;525599;27;1133;-62
2022/11/02 00:06:40;;;;;;;10.27;2.00;;;;;;;;;;526113;28;1114;-62
2022/11/02 00:06:55;;;;;;;9.13;1.80;;;;;;;;;;527366;27;1102;-62
2022/11/02 00:07:10;;;;;;;9.23;1.80;;;;;;;;;;525873;28;1122;-62
2022/11/02 00:07:25;;;;;;;9.57;1.85;;;;;;;;;;527525;27;1185;-62
2022/11/02 00:07:41;;;;;;;9.30;1.80;;;;;;;;;;526797;28;1156;-62
2022/11/02 00:07:57;;;;;;;11.88;1.92;;;;;;;;;;529948;27;1211;-62
2022/11/02 00:08:12;;;;;;;11.30;1.80;;;;;;;;;;527848;27;1353;-62
2022/11/02 00:08:27;;;;;;;8.83;1.67;;;;;;;;;;528149;27;1198;-62
2022/11/02 00:08:42;;;;;;;9.88;1.80;;;;;;;;;;526458;28;1248;-62
2022/11/02 00:08:58;;;;;;;8.33;2.00;;;;;;;;;;526015;28;1367;-61
2022/11/02 00:09:13;;;;;;;8.17;2.17;;;;;;;;;;525231;28;993;-62
2022/11/02 00:09:28;;;;;;;9.60;2.10;;;;;;;;;;525014;28;1121;-62
2022/11/02 00:09:43;;;;;;;9.68;2.40;;;;;;;;;;525220;28;1192;-62
2022/11/02 00:09:59;;;;;;;10.03;2.40;;;;;;;;;;523815;28;1175;-62
2022/11/02 00:10:14;;;;;;;9.17;2.23;;;;;;;;;;524390;28;1554;-64
2022/11/02 00:10:29;;;;;;;11.40;2.40;;;;;;;;;;523175;28;1118;-62
2022/11/02 00:10:45;;;;;;;13.20;2.22;;;;;;;;;;524061;28;1161;-62
2022/11/02 00:11:00;;;;;;;11.13;1.93;;;;;;;;;;524795;28;1145;-62
2022/11/02 00:11:15;;;;;;;11.63;1.90;;;;;;;;;;524834;28;1175;-62
2022/11/02 00:11:30;;;;;;;10.38;2.03;;;;;;;;;;524471;28;1336;-62
2022/11/02 00:11:46;;;;;;;10.10;1.93;;;;;;;;;;520720;28;1275;-62
2022/11/02 00:12:01;;;;;;;10.53;1.87;;;;;;;;;;520950;28;1303;-62
2022/11/02 00:12:16;;;;;;;9.43;1.90;;;;;;;;;;523660;28;1113;-62
2022/11/02 00:12:32;;;;;;;8.45;1.98;;;;;;;;;;522527;28;1110;-62
2022/11/02 00:12:48;;;;;;;8.77;1.83;;;;;;;;;;520995;28;1149;-62
2022/11/02 00:13:03;;;;;;;12.70;2.05;;;;;;;;;;522282;28;1578;-62
2022/11/02 00:13:18;;;;;;;12.43;2.00;;;;;;;;;;521624;28;1199;-62
2022/11/02 00:13:34;;;;;;;10.03;1.80;;;;;;;;;;522694;28;1300;-62
2022/11/02 00:13:49;;;;;;;10.30;1.90;;;;;;;;;;523486;28;1794;-62
2022/11/02 00:14:04;;;;;;;11.00;1.90;;;;;;;;;;521948;28;1165;-62
2022/11/02 00:14:20;;;;;;;10.00;1.97;;;;;;;;;;523331;28;1460;-62
2022/11/02 00:14:35;;;;;;;8.23;1.90;;;;;;;;;;522814;28;1133;-61
2022/11/02 00:14:50;;;;;;;8.10;1.90;;;;;;;;;;521213;28;1118;-62
2022/11/02 00:15:06;;;;;;;8.05;1.90;;;;;;;;;;523310;28;1223;-62
2022/11/02 00:15:24;;;;;;;9.18;1.85;;;;;;;;;;526638;28;1105;-62
2022/11/02 00:15:39;;;;;;;12.38;2.05;;;;;;;;;;519359;28;2014;-62
2022/11/02 00:15:55;;;;;;;11.15;1.98;;;;;;;;;;522146;28;1023;-62
2022/11/02 00:16:14;;;;;;;10.77;1.97;;;;;;;;;;521698;28;1383;-62
2022/11/02 00:16:30;;;;;;;13.23;2.08;;;;;;;;;;520676;28;1110;-62
2022/11/02 00:16:45;;;;;;;12.63;2.08;;;;;;;;;;522504;28;1038;-62
2022/11/02 00:17:01;;;;;;;10.27;1.87;;;;;;;;;;520859;28;1121;-62
2022/11/02 00:17:16;;;;;;;11.73;1.92;;;;;;;;;;522483;28;1173;-62
2022/11/02 00:17:32;;;;;;;10.87;1.77;;;;;;;;;;522809;28;1215;-62
2022/11/02 00:17:51;;;;;;;8.15;1.65;;;;;;;;;;525082;28;1122;-62
2022/11/02 00:18:10;;;;;;;9.82;1.98;;;;;;;;;;527395;27;1153;-62
2022/11/02 00:18:25;;;;;;;9.50;1.80;;;;;;;;;;526399;28;1022;-63
2022/11/02 00:18:43;;;;;;;10.75;1.90;;;;;;;;;;526775;28;1136;-62
2022/11/02 00:18:59;;;;;;;10.55;2.10;;;;;;;;;;525664;28;1098;-62
2022/11/02 00:19:14;;;;;;;10.82;2.25;;;;;;;;;;525947;28;1350;-62
2022/11/02 00:19:30;;;;;;;10.93;2.20;;;;;;;;;;526029;28;1132;-62
2022/11/02 00:19:45;;;;;;;10.48;2.28;;;;;;;;;;523811;28;1198;-62
2022/11/02 00:20:03;;;;;;;8.07;2.07;;;;;;;;;;524004;28;1513;-62
2022/11/02 00:20:19;;;;;;;8.90;1.77;;;;;;;;;;523824;28;1039;-62
2022/11/02 00:20:38;;;;;;;10.18;1.80;;;;;;;;;;521755;28;1480;-62
2022/11/02 00:20:54;;;;;;;11.23;1.90;;;;;;;;;;522491;28;991;-62
2022/11/02 00:21:10;;;;;;;9.43;1.67;;;;;;;;;;522675;28;1141;-62
2022/11/02 00:21:26;;;;;;;8.95;1.88;;;;;;;;;;521957;28;1126;-62
2022/11/02 00:21:42;;;;;;;10.85;2.08;;;;;;;;;;522871;28;1105;-62
2022/11/02 00:21:58;;;;;;;10.45;1.83;;;;;;;;;;524008;28;1744;-62
2022/11/02 00:22:14;;;;;;;11.35;1.90;;;;;;;;;;524443;28;1228;-62
2022/11/02 00:22:30;;;;;;;9.15;1.88;;;;;;;;;;523321;28;1331;-62
2022/11/02 00:22:49;;;;;;;9.27;1.87;;;;;;;;;;525774;28;1372;-62
2022/11/02 00:23:06;;;;;;;12.38;2.45;;;;;;;;;;525436;28;1027;-62
2022/11/02 00:23:22;;;;;;;11.30;2.75;;;;;;;;;;523233;28;1332;-62
2022/11/02 00:23:38;;;;;;;10.25;2.55;;;;;;;;;;523892;28;979;-62
2022/11/02 00:23:56;;;;;;;8.18;2.40;;;;;;;;;;526991;27;1176;-62
2022/11/02 00:24:12;;;;;;;8.73;2.05;;;;;;;;;;525821;28;1376;-62
2022/11/02 00:24:28;;;;;;;10.73;2.20;;;;;;;;;;523945;28;1159;-62
2022/11/02 00:24:44;;;;;;;11.93;2.28;;;;;;;;;;526318;27;1117;-62
2022/11/02 00:25:03;;;;;;;10.07;2.08;;;;;;;;;;526806;28;1110;-62
2022/11/02 00:25:20;;;;;;;9.73;2.10;;;;;;;;;;525700;28;1283;-62
2022/11/02 00:25:42;;;;;;;10.05;2.17;;;;;;;;;;526248;27;1388;-62
2022/11/02 00:26:00;;;;;;;9.52;2.13;;;;;;;;;;523780;28;2369;-62
2022/11/02 00:26:16;;;;;;;10.43;2.15;;;;;;;;;;523926;28;1237;-62
2022/11/02 00:26:33;;;;;;;10.25;2.22;;;;;;;;;;526151;28;1097;-62
2022/11/02 00:26:49;;;;;;;10.18;2.10;;;;;;;;;;522943;28;1083;-63
2022/11/02 00:27:04;;;;;;;9.00;1.85;;;;;;;;;;523023;28;1005;-62
2022/11/02 00:27:20;;;;;;;10.63;2.20;;;;;;;;;;523458;28;1102;-62
2022/11/02 00:27:36;;;;;;;8.98;2.10;;;;;;;;;;524471;28;1273;-62
2022/11/02 00:27:51;;;;;;;8.03;1.90;;;;;;;;;;523988;28;1275;-62
2022/11/02 00:28:06;;;;;;;9.47;1.97;;;;;;;;;;526434;27;1007;-62
2022/11/02 00:28:22;;;;;;;7.85;1.65;;;;;;;;;;524709;28;1060;-62
2022/11/02 00:28:37;;;;;;;9.20;1.80;;;;;;;;;;521827;28;1263;-62
2022/11/02 00:28:53;;;;;;;11.57;2.10;;;;;;;;;;525854;28;1176;-62
2022/11/02 00:29:09;;;;;;;10.98;2.08;;;;;;;;;;523883;28;1376;-62
2022/11/02 00:29:24;;;;;;;9.53;1.80;;;;;;;;;;523222;28;1195;-62
2022/11/02 00:29:39;;;;;;;8.23;1.70;;;;;;;;;;523236;28;1042;-62
2022/11/02 00:29:55;;;;;;;9.77;1.80;;;;;;;;;;523244;28;987;-62
2022/11/02 00:30:10;;;;;;;10.97;1.90;;;;;;;;;;520911;28;1294;-62
2022/11/02 00:30:25;;;;;;;9.93;2.00;;;;;;;;;;523248;28;1452;-62
2022/11/02 00:30:41;;;;;;;8.98;1.85;;;;;;;;;;522802;28;1206;-62
2022/11/02 00:30:57;;;;;;;8.60;1.80;;;;;;;;;;523098;28;1420;-62
2022/11/02 00:31:12;;;;;;;9.30;1.80;;;;;;;;;;523068;28;1278;-62
2022/11/02 00:31:27;;;;;;;9.07;1.87;;;;;;;;;;523335;28;1290;-62
2022/11/02 00:31:43;;;;;;;10.23;2.00;;;;;;;;;;522353;28;1330;-62
2022/11/02 00:31:59;;;;;;;10.33;2.10;;;;;;;;;;522587;28;1218;-62
2022/11/02 00:32:14;;;;;;;12.38;2.28;;;;;;;;;;520945;28;1146;-62
2022/11/02 00:32:29;;;;;;;12.43;2.10;;;;;;;;;;517782;28;1327;-62
2022/11/02 00:32:44;;;;;;;10.70;1.85;;;;;;;;;;519277;28;1070;-63
2022/11/02 00:33:00;;;;;;;12.93;2.20;;;;;;;;;;519455;28;1328;-62
2022/11/02 00:33:15;;;;;;;11.43;2.20;;;;;;;;;;519875;28;1138;-62
2022/11/02 00:33:30;;;;;;;10.07;2.03;;;;;;;;;;522178;28;964;-62
2022/11/02 00:33:45;;;;;;;9.65;1.90;;;;;;;;;;520977;28;1593;-62
2022/11/02 00:34:01;;;;;;;9.93;1.93;;;;;;;;;;520963;28;1162;-62
2022/11/02 00:34:16;;;;;;;10.33;2.10;;;;;;;;;;519771;28;1201;-62
2022/11/02 00:34:31;;;;;;;8.77;1.90;;;;;;;;;;523354;28;924;-62
2022/11/02 00:34:46;;;;;;;10.65;1.90;;;;;;;;;;521536;28;1098;-62
2022/11/02 00:35:02;;;;;;;11.73;2.00;;;;;;;;;;524680;28;1200;-62
2022/11/02 00:35:17;;;;;;;11.80;2.00;;;;;;;;;;526856;28;1042;-62
2022/11/02 00:35:34;;;;;;;13.45;2.08;;;;;;;;;;524746;28;1169;-62
2022/11/02 00:35:49;;;;;;;10.80;2.03;;;;;;;;;;526114;28;1173;-62
2022/11/02 00:36:05;;;;;;;10.05;1.88;;;;;;;;;;526392;28;1097;-62
2022/11/02 00:36:20;;;;;;;9.57;1.63;;;;;;;;;;525910;28;2016;-62
2022/11/02 00:36:35;;;;;;;8.55;1.77;;;;;;;;;;523993;28;1319;-62
2022/11/02 00:36:52;;;;;;;9.80;1.93;;;;;;;;;;526092;28;1073;-62
2022/11/02 00:37:07;;;;;;;9.75;1.80;;;;;;;;;;523355;28;1149;-62
2022/11/02 00:37:23;;;;;;;8.80;1.80;;;;;;;;;;525236;28;990;-62
2022/11/02 00:37:38;;;;;;;9.47;1.80;;;;;;;;;;521608;28;1176;-62
2022/11/02 00:37:53;;;;;;;9.67;1.90;;;;;;;;;;521786;28;1168;-62
2022/11/02 00:38:08;;;;;;;10.25;2.15;;;;;;;;;;519393;28;1479;-62
2022/11/02 00:38:24;;;;;;;11.03;2.17;;;;;;;;;;518418;28;1334;-62
2022/11/02 00:38:39;;;;;;;11.10;2.03;;;;;;;;;;520243;28;1102;-62
2022/11/02 00:38:54;;;;;;;11.20;1.97;;;;;;;;;;520413;28;1146;-62
2022/11/02 00:39:09;;;;;;;10.85;1.90;;;;;;;;;;517144;28;1102;-62
2022/11/02 00:39:25;;;;;;;11.20;2.10;;;;;;;;;;518686;28;1158;-62
2022/11/02 00:39:40;;;;;;;9.97;2.00;;;;;;;;;;521270;28;1381;-62
2022/11/02 00:39:55;;;;;;;9.27;1.90;;;;;;;;;;518779;28;1691;-62
2022/11/02 00:40:11;;;;;;;11.48;2.08;;;;;;;;;;522871;28;1396;-62
2022/11/02 00:40:26;;;;;;;11.03;2.00;;;;;;;;;;524485;28;1275;-62
2022/11/02 00:40:42;;;;;;;10.35;2.00;;;;;;;;;;523851;28;1029;-62
2022/11/02 00:40:57;;;;;;;10.87;2.13;;;;;;;;;;522703;28;1235;-62
2022/11/02 00:41:13;;;;;;;9.43;2.00;;;;;;;;;;524114;28;1165;-62
2022/11/02 00:41:29;;;;;;;8.73;1.83;;;;;;;;;;523786;28;1086;-62
2022/11/02 00:41:45;;;;;;;11.30;2.08;;;;;;;;;;522428;28;1232;-62
2022/11/02 00:42:00;;;;;;;12.53;2.30;;;;;;;;;;521758;28;1164;-62
2022/11/02 00:42:15;;;;;;;9.95;2.08;;;;;;;;;;522993;28;1274;-62
2022/11/02 00:42:30;;;;;;;9.33;1.90;;;;;;;;;;522888;28;1101;-62
2022/11/02 00:42:46;;;;;;;8.90;2.00;;;;;;;;;;522314;28;1035;-62
2022/11/02 00:43:01;;;;;;;9.63;2.00;;;;;;;;;;524128;28;1443;-62
2022/11/02 00:43:16;;;;;;;11.07;1.83;;;;;;;;;;524495;28;1158;-62
2022/11/02 00:43:32;;;;;;;11.03;1.93;;;;;;;;;;523807;28;1021;-62
2022/11/02 00:43:47;;;;;;;10.23;1.93;;;;;;;;;;524786;28;1183;-62
2022/11/02 00:44:02;;;;;;;10.15;2.00;;;;;;;;;;523992;28;1151;-62
2022/11/02 00:44:17;;;;;;;11.63;2.30;;;;;;;;;;523174;28;1038;-62
2022/11/02 00:44:33;;;;;;;14.77;2.40;;;;;;;;;;521489;28;1184;-62
2022/11/02 00:44:48;;;;;;;12.48;2.30;;;;;;;;;;516984;28;1176;-62
2022/11/02 00:45:04;;;;;;;8.97;2.10;;;;;;;;;;517808;28;1461;-62
2022/11/02 00:45:22;;;;;;;10.82;1.92;;;;;;;;;;517537;28;1481;-62
2022/11/02 00:45:37;;;;;;;11.60;2.20;;;;;;;;;;518286;28;1210;-62
2022/11/02 00:45:52;;;;;;;8.40;1.90;;;;;;;;;;518465;28;1170;-62
2022/11/02 00:46:08;;;;;;;7.70;1.70;;;;;;;;;;520441;28;975;-62
2022/11/02 00:46:23;;;;;;;7.57;1.90;;;;;;;;;;518651;28;1299;-62
2022/11/02 00:46:38;;;;;;;8.20;1.80;;;;;;;;;;520417;28;1168;-62
2022/11/02 00:46:54;;;;;;;9.10;1.90;;;;;;;;;;519440;28;1269;-62
2022/11/02 00:47:10;;;;;;;8.45;1.92;;;;;;;;;;521033;28;1158;-62
2022/11/02 00:47:25;;;;;;;12.65;2.20;;;;;;;;;;521954;28;1292;-62
2022/11/02 00:47:41;;;;;;;12.90;2.30;;;;;;;;;;521012;28;1079;-62
2022/11/02 00:47:56;;;;;;;9.57;1.95;;;;;;;;;;521050;28;1211;-62
2022/11/02 00:48:11;;;;;;;9.80;2.03;;;;;;;;;;521485;28;1390;-62
2022/11/02 00:48:26;;;;;;;10.00;2.00;;;;;;;;;;520457;28;1658;-62
2022/11/02 00:48:42;;;;;;;8.43;1.80;;;;;;;;;;521305;28;1158;-62
2022/11/02 00:48:57;;;;;;;9.07;2.05;;;;;;;;;;520088;28;1045;-62
2022/11/02 00:49:12;;;;;;;9.83;2.13;;;;;;;;;;517607;28;1169;-62
2022/11/02 00:49:27;;;;;;;9.87;2.00;;;;;;;;;;518005;28;1096;-62
2022/11/02 00:49:43;;;;;;;10.30;2.03;;;;;;;;;;520883;28;1442;-62
2022/11/02 00:49:58;;;;;;;9.47;1.93;;;;;;;;;;520727;28;1296;-62
2022/11/02 00:50:13;;;;;;;9.60;2.10;;;;;;;;;;519503;28;1149;-62
2022/11/02 00:50:29;;;;;;;10.17;2.10;;;;;;;;;;520992;28;1173;-62
2022/11/02 00:50:44;;;;;;;12.15;1.90;;;;;;;;;;518555;28;1196;-62
2022/11/02 00:51:00;;;;;;;11.38;1.83;;;;;;;;;;520890;28;1264;-62
2022/11/02 00:51:15;;;;;;;9.90;1.90;;;;;;;;;;522531;28;1175;-62
2022/11/02 00:51:30;;;;;;;11.07;2.03;;;;;;;;;;519906;28;1165;-62
2022/11/02 00:51:46;;;;;;;9.93;2.00;;;;;;;;;;519387;28;1264;-62
2022/11/02 00:52:01;;;;;;;9.73;2.03;;;;;;;;;;519521;28;1099;-62
2022/11/02 00:52:16;;;;;;;9.50;2.07;;;;;;;;;;522395;28;1174;-62
2022/11/02 00:52:32;;;;;;;10.33;2.00;;;;;;;;;;521961;28;1109;-62
2022/11/02 00:52:47;;;;;;;11.10;2.00;;;;;;;;;;521936;28;1137;-62
2022/11/02 00:53:02;;;;;;;12.10;2.00;;;;;;;;;;524351;28;1073;-63
2022/11/02 00:53:17;;;;;;;12.33;2.10;;;;;;;;;;521799;28;1379;-62
2022/11/02 00:53:33;;;;;;;10.95;2.00;;;;;;;;;;518893;28;1687;-62
2022/11/02 00:53:48;;;;;;;10.47;1.90;;;;;;;;;;518772;28;1142;-62
2022/11/02 00:54:03;;;;;;;14.27;2.10;;;;;;;;;;518260;28;1317;-62
2022/11/02 00:54:18;;;;;;;13.90;2.00;;;;;;;;;;517342;28;1308;-62
2022/11/02 00:54:34;;;;;;;11.20;2.03;;;;;;;;;;517191;28;1332;-62
2022/11/02 00:54:49;;;;;;;10.87;2.00;;;;;;;;;;518082;28;1166;-62
2022/11/02 00:55:07;;;;;;;9.50;1.83;;;;;;;;;;518267;28;1197;-62
2022/11/02 00:55:23;;;;;;;9.98;1.88;;;;;;;;;;519076;28;979;-62
2022/11/02 00:55:38;;;;;;;9.60;2.00;;;;;;;;;;517511;28;1332;-62
2022/11/02 00:55:53;;;;;;;10.25;2.15;;;;;;;;;;518314;28;1099;-62
2022/11/02 00:56:09;;;;;;;8.93;1.90;;;;;;;;;;522945;28;1230;-62
2022/11/02 00:56:24;;;;;;;10.67;1.87;;;;;;;;;;522843;28;2020;-62
2022/11/02 00:56:39;;;;;;;11.60;1.97;;;;;;;;;;522214;28;1045;-62
2022/11/02 00:56:55;;;;;;;10.68;2.17;;;;;;;;;;520666;28;1187;-62
2022/11/02 00:57:10;;;;;;;10.97;2.33;;;;;;;;;;521456;28;1293;-62
2022/11/02 00:57:25;;;;;;;9.03;2.00;;;;;;;;;;520936;28;1203;-62
2022/11/02 00:57:41;;;;;;;9.48;2.03;;;;;;;;;;523207;28;1227;-62
2022/11/02 00:57:56;;;;;;;10.67;2.10;;;;;;;;;;519309;28;1359;-62
2022/11/02 00:58:12;;;;;;;9.38;1.95;;;;;;;;;;521440;28;1213;-62
2022/11/02 00:58:27;;;;;;;10.68;2.08;;;;;;;;;;516715;28;1435;-62
2022/11/02 00:58:43;;;;;;;11.50;2.27;;;;;;;;;;517366;28;1216;-62
2022/11/02 00:58:58;;;;;;;10.53;2.17;;;;;;;;;;517982;28;1212;-62
2022/11/02 00:59:14;;;;;;;11.20;2.00;;;;;;;;;;519498;28;1153;-62
2022/11/02 00:59:29;;;;;;;11.40;1.83;;;;;;;;;;518216;28;1067;-62
2022/11/02 00:59:44;;;;;;;10.13;1.80;;;;;;;;;;518775;28;1150;-62
2022/11/02 01:00:00;;;;;;;9.53;1.80;;;;;;;;;;517674;28;1311;-62
2022/11/02 01:00:15;;;;;;;10.33;1.80;;;;;;;;;;520114;28;1153;-62
2022/11/02 01:00:31;;;;;;;10.80;1.92;;;;;;;;;;520625;28;1229;-62
2022/11/02 01:00:46;;;;;;;10.20;2.03;;;;;;;;;;520813;28;1297;-62
2022/11/02 01:01:05;;;;;;;8.00;2.00;;;;;;;;;;519978;28;1164;-62
2022/11/02 01:01:20;;;;;;;7.22;2.05;;;;;;;;;;519591;28;1137;-62
2022/11/02 01:01:36;;;;;;;7.83;1.90;;;;;;;;;;520419;28;1047;-62
2022/11/02 01:01:51;;;;;;;8.20;1.70;;;;;;;;;;521173;28;1172;-62
2022/11/02 01:02:07;;;;;;;9.95;2.05;;;;;;;;;;519121;28;1228;-62
2022/11/02 01:02:22;;;;;;;9.63;2.07;;;;;;;;;;522077;28;1228;-62
2022/11/02 01:02:38;;;;;;;8.53;1.93;;;;;;;;;;524999;28;1160;-62
2022/11/02 01:02:53;;;;;;;10.57;2.10;;;;;;;;;;526714;28;1184;-62
2022/11/02 01:03:08;;;;;;;11.27;1.97;;;;;;;;;;526266;28;1294;-62
2022/11/02 01:03:23;;;;;;;9.65;1.70;;;;;;;;;;525645;28;1525;-62
2022/11/02 01:03:39;;;;;;;8.33;1.77;;;;;;;;;;525548;28;1731;-62
2022/11/02 01:03:56;;;;;;;8.13;1.90;;;;;;;;;;523443;28;1152;-63
2022/11/02 01:04:13;;;;;;;9.27;1.90;;;;;;;;;;524897;28;1024;-62
2022/11/02 01:04:28;;;;;;;9.60;1.73;;;;;;;;;;523885;28;1199;-62
2022/11/02 01:04:43;;;;;;;9.05;1.73;;;;;;;;;;523754;28;1538;-61
2022/11/02 01:04:59;;;;;;;10.10;1.80;;;;;;;;;;523788;28;1193;-62
2022/11/02 01:05:14;;;;;;;11.10;1.93;;;;;;;;;;523377;28;1193;-62
2022/11/02 01:05:29;;;;;;;12.85;2.33;;;;;;;;;;523896;28;1038;-62
2022/11/02 01:05:45;;;;;;;11.57;2.13;;;;;;;;;;522023;28;1184;-62
2022/11/02 01:06:11;;;;;;;9.90;2.00;;;;;;;;;;523214;28;1378;-62
2022/11/02 01:06:26;;;;;;;10.63;2.08;;;;;;;;;;521703;28;1197;-62
2022/11/02 01:06:42;;;;;;;9.50;2.00;;;;;;;;;;523813;28;1260;-62
2022/11/02 01:06:58;;;;;;;7.68;1.80;;;;;;;;;;521585;28;1577;-62
2022/11/02 01:07:13;;;;;;;8.32;1.90;;;;;;;;;;519364;28;1261;-62
2022/11/02 01:07:29;;;;;;;8.90;1.90;;;;;;;;;;518732;28;1481;-62
2022/11/02 01:07:44;;;;;;;8.30;1.70;;;;;;;;;;518627;28;1111;-62
2022/11/02 01:07:59;;;;;;;11.10;1.85;;;;;;;;;;520180;28;1106;-62
2022/11/02 01:08:14;;;;;;;11.93;2.10;;;;;;;;;;517189;28;1164;-63
2022/11/02 01:08:31;;;;;;;9.73;1.97;;;;;;;;;;517661;28;1071;-62
2022/11/02 01:08:47;;;;;;;8.63;1.80;;;;;;;;;;515254;28;1551;-62
2022/11/02 01:09:02;;;;;;;8.67;1.90;;;;;;;;;;518900;28;1159;-62
2022/11/02 01:09:17;;;;;;;10.20;2.00;;;;;;;;;;521116;28;1011;-62
2022/11/02 01:09:33;;;;;;;13.70;2.20;;;;;;;;;;522151;28;1238;-62
2022/11/02 01:09:48;;;;;;;13.27;2.20;;;;;;;;;;520809;28;958;-62
2022/11/02 01:10:05;;;;;;;9.60;1.90;;;;;;;;;;521289;28;1179;-62
2022/11/02 01:10:20;;;;;;;9.55;1.90;;;;;;;;;;521009;28;1041;-62
2022/11/02 01:10:36;;;;;;;11.70;2.00;;;;;;;;;;522405;28;1026;-62
2022/11/02 01:10:51;;;;;;;10.03;1.80;;;;;;;;;;520824;28;1175;-62
2022/11/02 01:11:18;;;;;;;8.18;1.73;;;;;;;;;;520404;28;1109;-62
2022/11/02 01:11:34;;;;;;;12.52;2.15;;;;;;;;;;522530;28;983;-62
2022/11/02 01:11:50;;;;;;;8.60;2.00;;;;;;;;;;523494;28;1105;-61
2022/11/02 01:12:06;;;;;;;8.15;1.95;;;;;;;;;;522063;28;1286;-62
2022/11/02 01:12:21;;;;;;;10.57;2.17;;;;;;;;;;522224;28;1073;-62
2022/11/02 01:12:38;;;;;;;12.80;2.60;;;;;;;;;;523043;28;1203;-62
2022/11/02 01:12:53;;;;;;;11.50;2.13;;;;;;;;;;521345;28;1571;-62
2022/11/02 01:13:09;;;;;;;10.73;1.90;;;;;;;;;;522965;28;1185;-62
2022/11/02 01:13:24;;;;;;;10.88;1.90;;;;;;;;;;521655;28;1804;-62
2022/11/02 01:13:39;;;;;;;10.00;2.07;;;;;;;;;;521110;28;1322;-62
2022/11/02 01:13:54;;;;;;;8.60;2.00;;;;;;;;;;522321;28;1511;-62
2022/11/02 01:14:10;;;;;;;8.73;2.00;;;;;;;;;;522476;28;1086;-62
2022/11/02 01:14:25;;;;;;;9.65;1.90;;;;;;;;;;521853;28;923;-62
2022/11/02 01:14:40;;;;;;;11.33;2.00;;;;;;;;;;523074;28;1197;-62
2022/11/02 01:14:56;;;;;;;10.30;2.13;;;;;;;;;;523020;28;1182;-62
2022/11/02 01:15:11;;;;;;;9.77;2.10;;;;;;;;;;523012;28;1069;-63
2022/11/02 01:15:26;;;;;;;10.87;2.00;;;;;;;;;;521579;28;1115;-62
2022/11/02 01:15:42;;;;;;;9.80;1.97;;;;;;;;;;525204;28;1121;-62
2022/11/02 01:15:57;;;;;;;9.07;1.92;;;;;;;;;;523550;28;1172;-62
2022/11/02 01:16:13;;;;;;;9.70;2.03;;;;;;;;;;521614;28;1259;-62
2022/11/02 01:16:29;;;;;;;9.85;2.03;;;;;;;;;;522431;28;2032;-62
2022/11/02 01:16:44;;;;;;;10.55;2.05;;;;;;;;;;522048;28;1164;-62
2022/11/02 01:17:00;;;;;;;10.73;2.17;;;;;;;;;;523607;28;1134;-62
2022/11/02 01:17:16;;;;;;;10.00;2.22;;;;;;;;;;523641;28;1377;-62
2022/11/02 01:17:31;;;;;;;10.60;2.15;;;;;;;;;;520863;28;971;-62
2022/11/02 01:17:46;;;;;;;10.90;2.07;;;;;;;;;;521725;28;1189;-62
2022/11/02 01:18:02;;;;;;;10.43;1.80;;;;;;;;;;523815;28;1109;-62
2022/11/02 01:18:17;;;;;;;9.20;1.87;;;;;;;;;;521819;28;1193;-62
2022/11/02 01:18:33;;;;;;;8.43;2.10;;;;;;;;;;521750;28;1187;-62
2022/11/02 01:18:53;;;;;;;10.18;2.28;;;;;;;;;;521828;28;1177;-60
2022/11/02 01:19:09;;;;;;;9.80;2.00;;;;;;;;;;523862;28;1058;-62
2022/11/02 01:19:24;;;;;;;8.40;1.98;;;;;;;;;;522933;28;1679;-62
2022/11/02 01:19:40;;;;;;;9.15;2.00;;;;;;;;;;521156;28;1154;-62
2022/11/02 01:19:55;;;;;;;9.73;1.93;;;;;;;;;;522483;28;1177;-62
2022/11/02 01:20:10;;;;;;;8.80;1.80;;;;;;;;;;522106;28;1057;-62
2022/11/02 01:20:26;;;;;;;8.43;1.80;;;;;;;;;;522752;28;1321;-62
2022/11/02 01:20:41;;;;;;;9.50;1.93;;;;;;;;;;520967;28;1325;-62
2022/11/02 01:20:57;;;;;;;9.97;2.00;;;;;;;;;;520421;28;1663;-62
2022/11/02 01:21:12;;;;;;;11.18;2.03;;;;;;;;;;521168;28;1344;-62
2022/11/02 01:21:28;;;;;;;12.57;2.30;;;;;;;;;;520663;28;1161;-61
2022/11/02 01:21:43;;;;;;;11.97;2.20;;;;;;;;;;517659;28;1181;-62
2022/11/02 01:21:58;;;;;;;10.03;1.90;;;;;;;;;;517603;28;1058;-62
2022/11/02 01:22:14;;;;;;;9.88;1.88;;;;;;;;;;517683;28;1220;-61
2022/11/02 01:22:30;;;;;;;11.67;2.03;;;;;;;;;;518121;28;1161;-62
2022/11/02 01:22:45;;;;;;;12.07;2.08;;;;;;;;;;519665;28;1347;-62
2022/11/02 01:23:00;;;;;;;10.13;2.03;;;;;;;;;;522931;28;1165;-62
2022/11/02 01:23:16;;;;;;;9.73;1.95;;;;;;;;;;520079;28;1149;-62
2022/11/02 01:23:33;;;;;;;9.53;1.90;;;;;;;;;;519194;28;1326;-62
2022/11/02 01:23:48;;;;;;;8.80;2.03;;;;;;;;;;520683;28;1031;-62
2022/11/02 01:24:03;;;;;;;8.07;1.93;;;;;;;;;;519006;28;1129;-62
2022/11/02 01:24:19;;;;;;;8.60;1.70;;;;;;;;;;519002;28;1155;-62
2022/11/02 01:24:34;;;;;;;10.17;1.90;;;;;;;;;;520258;28;1004;-62
2022/11/02 01:24:49;;;;;;;11.50;2.17;;;;;;;;;;523299;28;1296;-62
2022/11/02 01:25:05;;;;;;;12.10;2.13;;;;;;;;;;522286;28;942;-62
2022/11/02 01:25:20;;;;;;;9.97;1.90;;;;;;;;;;520396;28;1128;-62
2022/11/02 01:25:35;;;;;;;9.87;1.90;;;;;;;;;;522732;28;1300;-62
2022/11/02 01:25:51;;;;;;;12.47;2.00;;;;;;;;;;522663;28;1229;-62
2022/11/02 01:26:08;;;;;;;11.68;1.90;;;;;;;;;;521893;28;1098;-62
2022/11/02 01:26:23;;;;;;;10.38;2.00;;;;;;;;;;523600;28;1536;-62
2022/11/02 01:26:38;;;;;;;10.53;1.97;;;;;;;;;;522317;28;1391;-62
2022/11/02 01:26:54;;;;;;;10.87;2.07;;;;;;;;;;519588;28;1325;-62
2022/11/02 01:27:09;;;;;;;12.60;2.23;;;;;;;;;;521675;28;1211;-62
2022/11/02 01:27:24;;;;;;;13.23;2.08;;;;;;;;;;520031;28;1311;-62
2022/11/02 01:27:40;;;;;;;9.90;2.13;;;;;;;;;;518316;28;1592;-62
2022/11/02 01:27:55;;;;;;;8.80;2.07;;;;;;;;;;518812;28;1094;-62
2022/11/02 01:28:10;;;;;;;10.02;1.90;;;;;;;;;;519520;28;1039;-62
2022/11/02 01:28:25;;;;;;;12.03;2.17;;;;;;;;;;517405;28;1134;-62
2022/11/02 01:28:41;;;;;;;11.43;2.10;;;;;;;;;;518470;28;1134;-62
2022/11/02 01:28:56;;;;;;;10.03;2.03;;;;;;;;;;522055;28;1169;-62
2022/11/02 01:29:11;;;;;;;9.68;1.90;;;;;;;;;;519841;28;1259;-62
2022/11/02 01:29:27;;;;;;;8.53;1.70;;;;;;;;;;520660;28;1236;-62
2022/11/02 01:29:42;;;;;;;9.43;1.80;;;;;;;;;;523309;28;1106;-62
2022/11/02 01:29:57;;;;;;;11.95;2.20;;;;;;;;;;522392;28;1165;-62
2022/11/02 01:30:12;;;;;;;11.67;2.30;;;;;;;;;;522722;28;1138;-62
2022/11/02 01:30:28;;;;;;;11.50;2.40;;;;;;;;;;524397;28;1081;-62
2022/11/02 01:30:47;;;;;;;11.93;2.27;;;;;;;;;;524735;28;1015;-62
2022/11/02 01:31:02;;;;;;;11.55;1.95;;;;;;;;;;524492;28;1085;-62
2022/11/02 01:31:17;;;;;;;9.40;1.90;;;;;;;;;;527357;27;1073;-62
2022/11/02 01:31:33;;;;;;;8.90;1.90;;;;;;;;;;526217;27;1140;-62
2022/11/02 01:31:48;;;;;;;10.27;1.90;;;;;;;;;;522746;28;1196;-62
2022/11/02 01:32:04;;;;;;;10.10;1.90;;;;;;;;;;522958;28;1110;-62
2022/11/02 01:32:19;;;;;;;9.33;1.93;;;;;;;;;;522034;28;1161;-62
2022/11/02 01:32:34;;;;;;;9.98;2.08;;;;;;;;;;522843;28;1102;-62
2022/11/02 01:32:49;;;;;;;10.07;1.93;;;;;;;;;;521972;28;1163;-62
2022/11/02 01:33:06;;;;;;;8.30;1.97;;;;;;;;;;522036;28;1240;-62
2022/11/02 01:33:21;;;;;;;8.20;2.00;;;;;;;;;;519281;28;1031;-62
2022/11/02 01:33:41;;;;;;;8.18;1.80;;;;;;;;;;522435;28;1118;-62
2022/11/02 01:33:57;;;;;;;9.18;2.00;;;;;;;;;;524330;28;1387;-62
2022/11/02 01:34:13;;;;;;;10.85;2.17;;;;;;;;;;524381;28;1090;-62
2022/11/02 01:34:28;;;;;;;10.73;2.10;;;;;;;;;;522231;28;1357;-62
2022/11/02 01:34:43;;;;;;;9.23;1.80;;;;;;;;;;524335;28;1031;-62
2022/11/02 01:34:59;;;;;;;9.97;2.00;;;;;;;;;;522498;28;1302;-62
2022/11/02 01:35:15;;;;;;;9.68;2.10;;;;;;;;;;521380;28;1106;-62
2022/11/02 01:35:30;;;;;;;9.60;2.20;;;;;;;;;;520098;28;1457;-62
2022/11/02 01:35:46;;;;;;;9.27;2.03;;;;;;;;;;520441;28;1166;-62
2022/11/02 01:36:03;;;;;;;8.45;1.80;;;;;;;;;;523975;28;983;-62
2022/11/02 01:36:22;;;;;;;9.35;1.98;;;;;;;;;;521003;28;1965;-62
2022/11/02 01:36:37;;;;;;;9.98;2.10;;;;;;;;;;521688;28;1145;-62
2022/11/02 01:36:52;;;;;;;9.70;1.93;;;;;;;;;;522384;28;1090;-62